sensor_id;sensor_type;location;lat;lon;timestamp;P1;durP1;ratioP1;P2;durP2;ratioP2
21233;SDS011;10774;42.178;26.578;2023-05-10T00:02:24;10.70;;;6.18;;
21233;SDS011;10774;42.178;26.578;2023-05-10T00:04:50;14.10;;;7.15;;
21233;SDS011;10774;42.178;26.578;2023-05-10T00:07:16;10.40;;;6.30;;
21233;SDS011;10774;42.178;26.578;2023-05-10T00:09:42;9.68;;;6.25;;
21233;SDS011;10774;42.178;26.578;2023-05-10T00:12:08;9.68;;;6.40;;
21233;SDS011;10774;42.178;26.578;2023-05-10T00:14:34;11.85;;;6.28;;
21233;SDS011;10774;42.178;26.578;2023-05-10T00:16:59;9.10;;;5.93;;
21233;SDS011;10774;42.178;26.578;2023-05-10T00:19:25;8.60;;;6.30;;
21233;SDS011;10774;42.178;26.578;2023-05-10T00:21:50;9.52;;;5.55;;
21233;SDS011;10774;42.178;26.578;2023-05-10T00:24:16;9.95;;;6.15;;
21233;SDS011;10774;42.178;26.578;2023-05-10T00:26:41;9.57;;;6.28;;
21233;SDS011;10774;42.178;26.578;2023-05-10T00:29:07;10.07;;;6.10;;
21233;SDS011;10774;42.178;26.578;2023-05-10T00:31:32;14.70;;;6.03;;
21233;SDS011;10774;42.178;26.578;2023-05-10T00:33:58;13.20;;;7.05;;
21233;SDS011;10774;42.178;26.578;2023-05-10T00:36:23;10.02;;;6.20;;
21233;SDS011;10774;42.178;26.578;2023-05-10T00:38:49;10.80;;;6.53;;
21233;SDS011;10774;42.178;26.578;2023-05-10T00:41:14;7.05;;;5.80;;
21233;SDS011;10774;42.178;26.578;2023-05-10T00:43:40;10.70;;;5.90;;
21233;SDS011;10774;42.178;26.578;2023-05-10T00:46:06;9.75;;;5.95;;
21233;SDS011;10774;42.178;26.578;2023-05-10T00:48:32;8.20;;;5.85;;
21233;SDS011;10774;42.178;26.578;2023-05-10T00:50:58;11.23;;;5.38;;
21233;SDS011;10774;42.178;26.578;2023-05-10T00:53:24;9.55;;;5.43;;
21233;SDS011;10774;42.178;26.578;2023-05-10T00:55:50;12.02;;;5.63;;
21233;SDS011;10774;42.178;26.578;2023-05-10T00:58:16;10.23;;;6.07;;
21233;SDS011;10774;42.178;26.578;2023-05-10T01:00:42;5.97;;;5.25;;
21233;SDS011;10774;42.178;26.578;2023-05-10T01:03:09;12.52;;;5.90;;
21233;SDS011;10774;42.178;26.578;2023-05-10T01:05:36;8.90;;;5.07;;
21233;SDS011;10774;42.178;26.578;2023-05-10T01:08:01;8.07;;;4.90;;
21233;SDS011;10774;42.178;26.578;2023-05-10T01:10:27;8.40;;;5.38;;
21233;SDS011;10774;42.178;26.578;2023-05-10T01:12:53;6.95;;;4.93;;
21233;SDS011;10774;42.178;26.578;2023-05-10T01:15:19;11.88;;;5.85;;
21233;SDS011;10774;42.178;26.578;2023-05-10T01:17:46;8.05;;;5.35;;
21233;SDS011;10774;42.178;26.578;2023-05-10T01:20:12;9.50;;;5.30;;
21233;SDS011;10774;42.178;26.578;2023-05-10T01:25:49;10.25;;;5.80;;
21233;SDS011;10774;42.178;26.578;2023-05-10T01:29:31;7.32;;;5.32;;
21233;SDS011;10774;42.178;26.578;2023-05-10T01:37:42;7.50;;;5.35;;
21233;SDS011;10774;42.178;26.578;2023-05-10T01:40:30;9.45;;;4.97;;
21233;SDS011;10774;42.178;26.578;2023-05-10T01:43:02;6.95;;;5.38;;
21233;SDS011;10774;42.178;26.578;2023-05-10T01:45:33;7.13;;;5.65;;
21233;SDS011;10774;42.178;26.578;2023-05-10T01:48:08;10.18;;;6.72;;
21233;SDS011;10774;42.178;26.578;2023-05-10T01:50:36;12.70;;;8.32;;
21233;SDS011;10774;42.178;26.578;2023-05-10T01:53:06;16.92;;;9.88;;
21233;SDS011;10774;42.178;26.578;2023-05-10T01:55:34;14.23;;;8.95;;
21233;SDS011;10774;42.178;26.578;2023-05-10T01:58:06;14.00;;;9.30;;
21233;SDS011;10774;42.178;26.578;2023-05-10T02:00:36;14.55;;;9.60;;
21233;SDS011;10774;42.178;26.578;2023-05-10T02:03:06;14.68;;;10.05;;
21233;SDS011;10774;42.178;26.578;2023-05-10T02:05:33;15.60;;;9.30;;
21233;SDS011;10774;42.178;26.578;2023-05-10T02:08:01;11.40;;;7.47;;
21233;SDS011;10774;42.178;26.578;2023-05-10T02:10:28;11.05;;;6.82;;
21233;SDS011;10774;42.178;26.578;2023-05-10T02:12:55;8.50;;;5.40;;
21233;SDS011;10774;42.178;26.578;2023-05-10T02:15:24;8.98;;;5.47;;
21233;SDS011;10774;42.178;26.578;2023-05-10T02:17:51;8.98;;;5.32;;
21233;SDS011;10774;42.178;26.578;2023-05-10T02:20:19;7.57;;;5.53;;
21233;SDS011;10774;42.178;26.578;2023-05-10T02:22:47;11.30;;;5.95;;
21233;SDS011;10774;42.178;26.578;2023-05-10T02:25:15;9.50;;;5.70;;
21233;SDS011;10774;42.178;26.578;2023-05-10T02:27:44;11.73;;;5.68;;
21233;SDS011;10774;42.178;26.578;2023-05-10T02:30:11;10.02;;;5.53;;
21233;SDS011;10774;42.178;26.578;2023-05-10T02:32:38;8.38;;;5.60;;
21233;SDS011;10774;42.178;26.578;2023-05-10T02:35:04;8.93;;;5.82;;
21233;SDS011;10774;42.178;26.578;2023-05-10T02:37:31;12.98;;;7.40;;
21233;SDS011;10774;42.178;26.578;2023-05-10T02:39:58;11.48;;;8.13;;
21233;SDS011;10774;42.178;26.578;2023-05-10T02:42:27;12.93;;;7.82;;
21233;SDS011;10774;42.178;26.578;2023-05-10T02:44:55;10.50;;;6.40;;
21233;SDS011;10774;42.178;26.578;2023-05-10T02:47:25;14.50;;;6.20;;
21233;SDS011;10774;42.178;26.578;2023-05-10T02:49:50;8.98;;;6.78;;
21233;SDS011;10774;42.178;26.578;2023-05-10T02:52:18;9.13;;;6.13;;
21233;SDS011;10774;42.178;26.578;2023-05-10T02:54:52;11.88;;;6.43;;
21233;SDS011;10774;42.178;26.578;2023-05-10T02:57:28;8.30;;;6.38;;
21233;SDS011;10774;42.178;26.578;2023-05-10T02:59:56;7.38;;;5.97;;
21233;SDS011;10774;42.178;26.578;2023-05-10T03:02:22;7.78;;;5.47;;
21233;SDS011;10774;42.178;26.578;2023-05-10T03:04:48;9.20;;;5.72;;
21233;SDS011;10774;42.178;26.578;2023-05-10T03:07:13;8.57;;;5.43;;
21233;SDS011;10774;42.178;26.578;2023-05-10T03:09:39;7.57;;;5.40;;
21233;SDS011;10774;42.178;26.578;2023-05-10T03:12:15;8.13;;;5.93;;
21233;SDS011;10774;42.178;26.578;2023-05-10T03:14:53;7.97;;;5.53;;
21233;SDS011;10774;42.178;26.578;2023-05-10T03:20:36;12.55;;;6.57;;
21233;SDS011;10774;42.178;26.578;2023-05-10T03:26:07;8.80;;;6.35;;
21233;SDS011;10774;42.178;26.578;2023-05-10T03:28:34;10.27;;;6.70;;
21233;SDS011;10774;42.178;26.578;2023-05-10T03:31:00;13.57;;;7.53;;
21233;SDS011;10774;42.178;26.578;2023-05-10T03:33:29;9.07;;;7.00;;
21233;SDS011;10774;42.178;26.578;2023-05-10T03:35:54;11.40;;;6.90;;
21233;SDS011;10774;42.178;26.578;2023-05-10T03:38:20;10.25;;;7.22;;
21233;SDS011;10774;42.178;26.578;2023-05-10T03:40:45;11.07;;;7.07;;
21233;SDS011;10774;42.178;26.578;2023-05-10T03:43:10;9.02;;;6.88;;
21233;SDS011;10774;42.178;26.578;2023-05-10T03:45:36;7.93;;;6.70;;
21233;SDS011;10774;42.178;26.578;2023-05-10T03:48:02;10.30;;;6.97;;
21233;SDS011;10774;42.178;26.578;2023-05-10T03:50:28;8.88;;;6.30;;
21233;SDS011;10774;42.178;26.578;2023-05-10T03:52:53;9.32;;;5.90;;
21233;SDS011;10774;42.178;26.578;2023-05-10T03:55:19;10.90;;;6.85;;
21233;SDS011;10774;42.178;26.578;2023-05-10T03:57:44;7.88;;;5.93;;
21233;SDS011;10774;42.178;26.578;2023-05-10T04:00:10;6.72;;;5.50;;
21233;SDS011;10774;42.178;26.578;2023-05-10T04:02:35;7.10;;;6.40;;
21233;SDS011;10774;42.178;26.578;2023-05-10T04:05:01;8.40;;;5.93;;
21233;SDS011;10774;42.178;26.578;2023-05-10T04:07:27;8.02;;;5.57;;
21233;SDS011;10774;42.178;26.578;2023-05-10T04:09:53;8.38;;;5.43;;
21233;SDS011;10774;42.178;26.578;2023-05-10T04:12:18;9.80;;;5.97;;
21233;SDS011;10774;42.178;26.578;2023-05-10T04:14:43;7.00;;;5.72;;
21233;SDS011;10774;42.178;26.578;2023-05-10T04:17:09;9.02;;;5.38;;
21233;SDS011;10774;42.178;26.578;2023-05-10T04:19:35;7.85;;;5.25;;
21233;SDS011;10774;42.178;26.578;2023-05-10T04:22:01;10.07;;;5.55;;
21233;SDS011;10774;42.178;26.578;2023-05-10T04:24:27;8.80;;;5.20;;
21233;SDS011;10774;42.178;26.578;2023-05-10T04:26:53;7.57;;;4.78;;
21233;SDS011;10774;42.178;26.578;2023-05-10T04:29:19;9.15;;;4.82;;
21233;SDS011;10774;42.178;26.578;2023-05-10T04:31:45;10.48;;;5.55;;
21233;SDS011;10774;42.178;26.578;2023-05-10T04:34:10;12.52;;;5.40;;
21233;SDS011;10774;42.178;26.578;2023-05-10T04:36:36;11.85;;;5.80;;
21233;SDS011;10774;42.178;26.578;2023-05-10T04:39:02;9.30;;;5.57;;
21233;SDS011;10774;42.178;26.578;2023-05-10T04:41:28;8.52;;;5.10;;
21233;SDS011;10774;42.178;26.578;2023-05-10T04:43:54;10.45;;;5.60;;
21233;SDS011;10774;42.178;26.578;2023-05-10T04:46:19;11.18;;;5.40;;
21233;SDS011;10774;42.178;26.578;2023-05-10T04:48:45;8.82;;;4.93;;
21233;SDS011;10774;42.178;26.578;2023-05-10T04:51:10;7.10;;;4.85;;
21233;SDS011;10774;42.178;26.578;2023-05-10T04:53:36;8.52;;;5.38;;
21233;SDS011;10774;42.178;26.578;2023-05-10T04:56:01;10.20;;;5.20;;
21233;SDS011;10774;42.178;26.578;2023-05-10T04:58:27;10.93;;;5.22;;
21233;SDS011;10774;42.178;26.578;2023-05-10T05:00:52;8.63;;;5.43;;
21233;SDS011;10774;42.178;26.578;2023-05-10T05:03:17;7.60;;;4.95;;
21233;SDS011;10774;42.178;26.578;2023-05-10T05:05:43;6.57;;;5.03;;
21233;SDS011;10774;42.178;26.578;2023-05-10T05:08:09;9.52;;;5.13;;
21233;SDS011;10774;42.178;26.578;2023-05-10T05:10:35;8.90;;;4.88;;
21233;SDS011;10774;42.178;26.578;2023-05-10T05:13:00;11.35;;;5.28;;
21233;SDS011;10774;42.178;26.578;2023-05-10T05:15:26;16.23;;;7.90;;
21233;SDS011;10774;42.178;26.578;2023-05-10T05:17:51;12.18;;;5.63;;
21233;SDS011;10774;42.178;26.578;2023-05-10T05:20:17;9.00;;;5.35;;
21233;SDS011;10774;42.178;26.578;2023-05-10T05:22:43;10.18;;;5.63;;
21233;SDS011;10774;42.178;26.578;2023-05-10T05:25:09;9.13;;;5.88;;
21233;SDS011;10774;42.178;26.578;2023-05-10T05:27:35;12.93;;;5.22;;
21233;SDS011;10774;42.178;26.578;2023-05-10T05:30:00;5.95;;;4.53;;
21233;SDS011;10774;42.178;26.578;2023-05-10T05:32:27;11.82;;;4.55;;
21233;SDS011;10774;42.178;26.578;2023-05-10T05:34:52;11.43;;;4.63;;
21233;SDS011;10774;42.178;26.578;2023-05-10T05:37:19;7.07;;;4.72;;
21233;SDS011;10774;42.178;26.578;2023-05-10T05:39:46;8.00;;;4.82;;
21233;SDS011;10774;42.178;26.578;2023-05-10T05:42:12;8.80;;;5.00;;
21233;SDS011;10774;42.178;26.578;2023-05-10T05:44:38;12.68;;;6.25;;
21233;SDS011;10774;42.178;26.578;2023-05-10T05:47:05;7.85;;;4.90;;
21233;SDS011;10774;42.178;26.578;2023-05-10T05:49:31;10.32;;;7.50;;
21233;SDS011;10774;42.178;26.578;2023-05-10T05:52:03;9.93;;;5.78;;
21233;SDS011;10774;42.178;26.578;2023-05-10T05:54:29;11.77;;;6.60;;
21233;SDS011;10774;42.178;26.578;2023-05-10T05:56:58;11.30;;;6.32;;
21233;SDS011;10774;42.178;26.578;2023-05-10T05:59:25;8.27;;;5.30;;
21233;SDS011;10774;42.178;26.578;2023-05-10T06:01:50;7.97;;;5.25;;
21233;SDS011;10774;42.178;26.578;2023-05-10T06:04:16;10.25;;;6.13;;
21233;SDS011;10774;42.178;26.578;2023-05-10T06:06:42;9.23;;;5.30;;
21233;SDS011;10774;42.178;26.578;2023-05-10T06:09:08;6.00;;;4.20;;
21233;SDS011;10774;42.178;26.578;2023-05-10T06:11:34;5.18;;;3.67;;
21233;SDS011;10774;42.178;26.578;2023-05-10T06:14:00;4.78;;;3.75;;
21233;SDS011;10774;42.178;26.578;2023-05-10T06:16:26;11.35;;;6.07;;
21233;SDS011;10774;42.178;26.578;2023-05-10T06:18:52;8.18;;;5.32;;
21233;SDS011;10774;42.178;26.578;2023-05-10T06:21:17;14.27;;;6.85;;
21233;SDS011;10774;42.178;26.578;2023-05-10T06:23:43;8.35;;;4.88;;
21233;SDS011;10774;42.178;26.578;2023-05-10T06:26:09;8.40;;;4.07;;
21233;SDS011;10774;42.178;26.578;2023-05-10T06:28:34;5.22;;;3.90;;
21233;SDS011;10774;42.178;26.578;2023-05-10T06:31:02;8.32;;;4.32;;
21233;SDS011;10774;42.178;26.578;2023-05-10T06:33:28;5.25;;;3.63;;
21233;SDS011;10774;42.178;26.578;2023-05-10T06:35:53;6.28;;;3.38;;
21233;SDS011;10774;42.178;26.578;2023-05-10T06:38:19;5.65;;;3.05;;
21233;SDS011;10774;42.178;26.578;2023-05-10T06:40:44;7.03;;;3.35;;
21233;SDS011;10774;42.178;26.578;2023-05-10T06:43:10;4.65;;;2.60;;
21233;SDS011;10774;42.178;26.578;2023-05-10T06:45:35;4.95;;;2.70;;
21233;SDS011;10774;42.178;26.578;2023-05-10T06:48:01;6.82;;;3.55;;
21233;SDS011;10774;42.178;26.578;2023-05-10T06:50:26;6.22;;;4.03;;
21233;SDS011;10774;42.178;26.578;2023-05-10T06:52:51;5.40;;;4.28;;
21233;SDS011;10774;42.178;26.578;2023-05-10T06:55:17;9.02;;;3.75;;
21233;SDS011;10774;42.178;26.578;2023-05-10T06:57:42;4.05;;;2.75;;
21233;SDS011;10774;42.178;26.578;2023-05-10T07:00:08;8.10;;;3.70;;
21233;SDS011;10774;42.178;26.578;2023-05-10T07:02:34;6.90;;;2.70;;
21233;SDS011;10774;42.178;26.578;2023-05-10T07:05:00;4.72;;;3.00;;
21233;SDS011;10774;42.178;26.578;2023-05-10T07:07:26;4.57;;;3.55;;
21233;SDS011;10774;42.178;26.578;2023-05-10T07:09:51;6.28;;;3.65;;
21233;SDS011;10774;42.178;26.578;2023-05-10T07:12:17;11.75;;;5.05;;
21233;SDS011;10774;42.178;26.578;2023-05-10T07:14:42;8.63;;;3.10;;
21233;SDS011;10774;42.178;26.578;2023-05-10T07:17:08;3.53;;;2.60;;
21233;SDS011;10774;42.178;26.578;2023-05-10T07:19:33;3.95;;;1.77;;
21233;SDS011;10774;42.178;26.578;2023-05-10T07:21:58;2.53;;;2.25;;
21233;SDS011;10774;42.178;26.578;2023-05-10T07:24:24;7.75;;;2.72;;
21233;SDS011;10774;42.178;26.578;2023-05-10T07:26:50;5.68;;;3.35;;
21233;SDS011;10774;42.178;26.578;2023-05-10T07:29:15;5.70;;;2.72;;
21233;SDS011;10774;42.178;26.578;2023-05-10T07:31:41;8.90;;;3.00;;
21233;SDS011;10774;42.178;26.578;2023-05-10T07:34:07;7.03;;;3.60;;
21233;SDS011;10774;42.178;26.578;2023-05-10T07:36:34;6.97;;;3.60;;
21233;SDS011;10774;42.178;26.578;2023-05-10T07:38:59;4.10;;;2.50;;
21233;SDS011;10774;42.178;26.578;2023-05-10T07:41:25;8.38;;;4.18;;
21233;SDS011;10774;42.178;26.578;2023-05-10T07:43:51;5.82;;;3.15;;
21233;SDS011;10774;42.178;26.578;2023-05-10T07:46:16;6.82;;;4.22;;
21233;SDS011;10774;42.178;26.578;2023-05-10T07:48:41;4.85;;;2.50;;
21233;SDS011;10774;42.178;26.578;2023-05-10T07:51:07;7.80;;;3.55;;
21233;SDS011;10774;42.178;26.578;2023-05-10T07:53:34;4.07;;;2.40;;
21233;SDS011;10774;42.178;26.578;2023-05-10T07:56:19;7.25;;;2.50;;
21233;SDS011;10774;42.178;26.578;2023-05-10T07:58:47;4.90;;;3.00;;
21233;SDS011;10774;42.178;26.578;2023-05-10T08:01:13;4.20;;;1.90;;
21233;SDS011;10774;42.178;26.578;2023-05-10T08:03:38;5.75;;;2.10;;
21233;SDS011;10774;42.178;26.578;2023-05-10T08:06:04;6.05;;;2.13;;
21233;SDS011;10774;42.178;26.578;2023-05-10T08:08:29;5.75;;;3.17;;
21233;SDS011;10774;42.178;26.578;2023-05-10T08:10:55;11.43;;;2.97;;
21233;SDS011;10774;42.178;26.578;2023-05-10T08:13:20;5.82;;;2.83;;
21233;SDS011;10774;42.178;26.578;2023-05-10T08:15:46;8.73;;;3.80;;
21233;SDS011;10774;42.178;26.578;2023-05-10T08:18:12;7.55;;;3.30;;
21233;SDS011;10774;42.178;26.578;2023-05-10T08:20:37;6.20;;;2.88;;
21233;SDS011;10774;42.178;26.578;2023-05-10T08:23:03;7.32;;;4.00;;
21233;SDS011;10774;42.178;26.578;2023-05-10T08:25:28;8.63;;;4.80;;
21233;SDS011;10774;42.178;26.578;2023-05-10T08:27:54;7.63;;;4.13;;
21233;SDS011;10774;42.178;26.578;2023-05-10T08:30:19;9.90;;;3.80;;
21233;SDS011;10774;42.178;26.578;2023-05-10T08:32:45;10.63;;;3.92;;
21233;SDS011;10774;42.178;26.578;2023-05-10T08:35:10;10.80;;;4.70;;
21233;SDS011;10774;42.178;26.578;2023-05-10T08:37:35;12.02;;;6.30;;
21233;SDS011;10774;42.178;26.578;2023-05-10T08:40:01;14.77;;;9.00;;
21233;SDS011;10774;42.178;26.578;2023-05-10T08:42:28;9.57;;;5.80;;
21233;SDS011;10774;42.178;26.578;2023-05-10T08:44:55;7.78;;;3.75;;
21233;SDS011;10774;42.178;26.578;2023-05-10T08:47:22;7.70;;;4.30;;
21233;SDS011;10774;42.178;26.578;2023-05-10T08:49:47;6.78;;;3.22;;
21233;SDS011;10774;42.178;26.578;2023-05-10T08:52:16;5.75;;;2.03;;
21233;SDS011;10774;42.178;26.578;2023-05-10T08:54:43;3.28;;;1.85;;
21233;SDS011;10774;42.178;26.578;2023-05-10T08:57:09;6.50;;;1.80;;
21233;SDS011;10774;42.178;26.578;2023-05-10T08:59:35;3.30;;;2.40;;
21233;SDS011;10774;42.178;26.578;2023-05-10T09:02:04;6.28;;;3.78;;
21233;SDS011;10774;42.178;26.578;2023-05-10T09:04:29;7.45;;;4.30;;
21233;SDS011;10774;42.178;26.578;2023-05-10T09:06:56;4.90;;;2.83;;
21233;SDS011;10774;42.178;26.578;2023-05-10T09:09:22;3.28;;;1.85;;
21233;SDS011;10774;42.178;26.578;2023-05-10T09:11:50;4.03;;;2.33;;
21233;SDS011;10774;42.178;26.578;2023-05-10T09:14:16;7.82;;;3.25;;
21233;SDS011;10774;42.178;26.578;2023-05-10T09:16:42;7.03;;;2.88;;
21233;SDS011;10774;42.178;26.578;2023-05-10T09:19:08;7.78;;;4.47;;
21233;SDS011;10774;42.178;26.578;2023-05-10T09:21:34;11.55;;;5.32;;
21233;SDS011;10774;42.178;26.578;2023-05-10T09:24:04;7.22;;;3.30;;
21233;SDS011;10774;42.178;26.578;2023-05-10T09:26:33;7.45;;;3.25;;
21233;SDS011;10774;42.178;26.578;2023-05-10T09:29:00;9.95;;;3.95;;
21233;SDS011;10774;42.178;26.578;2023-05-10T09:32:00;6.57;;;3.35;;
21233;SDS011;10774;42.178;26.578;2023-05-10T09:34:28;3.83;;;2.42;;
21233;SDS011;10774;42.178;26.578;2023-05-10T09:36:56;6.03;;;2.90;;
21233;SDS011;10774;42.178;26.578;2023-05-10T09:39:32;7.30;;;3.08;;
21233;SDS011;10774;42.178;26.578;2023-05-10T09:41:59;7.47;;;2.90;;
21233;SDS011;10774;42.178;26.578;2023-05-10T09:44:28;6.28;;;2.97;;
21233;SDS011;10774;42.178;26.578;2023-05-10T09:46:54;5.00;;;2.17;;
21233;SDS011;10774;42.178;26.578;2023-05-10T09:49:20;5.40;;;2.03;;
21233;SDS011;10774;42.178;26.578;2023-05-10T09:51:46;5.63;;;2.67;;
21233;SDS011;10774;42.178;26.578;2023-05-10T09:54:15;7.95;;;3.50;;
21233;SDS011;10774;42.178;26.578;2023-05-10T09:56:41;5.22;;;2.35;;
21233;SDS011;10774;42.178;26.578;2023-05-10T09:59:09;8.52;;;2.20;;
21233;SDS011;10774;42.178;26.578;2023-05-10T10:01:36;6.60;;;2.83;;
21233;SDS011;10774;42.178;26.578;2023-05-10T10:04:02;3.83;;;2.25;;
21233;SDS011;10774;42.178;26.578;2023-05-10T10:06:38;5.03;;;2.30;;
21233;SDS011;10774;42.178;26.578;2023-05-10T10:09:08;5.90;;;1.92;;
21233;SDS011;10774;42.178;26.578;2023-05-10T10:11:37;3.75;;;2.15;;
21233;SDS011;10774;42.178;26.578;2023-05-10T10:14:04;2.85;;;2.08;;
21233;SDS011;10774;42.178;26.578;2023-05-10T10:16:30;4.43;;;2.38;;
21233;SDS011;10774;42.178;26.578;2023-05-10T10:19:00;9.43;;;4.78;;
21233;SDS011;10774;42.178;26.578;2023-05-10T10:21:25;10.85;;;3.72;;
21233;SDS011;10774;42.178;26.578;2023-05-10T10:23:54;6.45;;;4.13;;
21233;SDS011;10774;42.178;26.578;2023-05-10T10:26:20;4.97;;;4.15;;
21233;SDS011;10774;42.178;26.578;2023-05-10T10:31:34;3.50;;;1.60;;
21233;SDS011;10774;42.178;26.578;2023-05-10T10:34:07;3.10;;;1.50;;
21233;SDS011;10774;42.178;26.578;2023-05-10T10:36:42;4.22;;;1.50;;
21233;SDS011;10774;42.178;26.578;2023-05-10T10:39:10;6.80;;;2.63;;
21233;SDS011;10774;42.178;26.578;2023-05-10T10:41:53;3.25;;;2.13;;
21233;SDS011;10774;42.178;26.578;2023-05-10T10:52:21;3.33;;;2.10;;
21233;SDS011;10774;42.178;26.578;2023-05-10T10:54:53;5.43;;;2.22;;
21233;SDS011;10774;42.178;26.578;2023-05-10T10:57:22;3.35;;;1.90;;
21233;SDS011;10774;42.178;26.578;2023-05-10T10:59:48;4.00;;;2.70;;
21233;SDS011;10774;42.178;26.578;2023-05-10T11:02:32;6.80;;;3.13;;
21233;SDS011;10774;42.178;26.578;2023-05-10T11:04:58;2.35;;;2.10;;
21233;SDS011;10774;42.178;26.578;2023-05-10T11:07:24;6.40;;;2.10;;
21233;SDS011;10774;42.178;26.578;2023-05-10T11:09:49;5.18;;;2.50;;
21233;SDS011;10774;42.178;26.578;2023-05-10T11:12:15;4.13;;;1.90;;
21233;SDS011;10774;42.178;26.578;2023-05-10T11:14:40;4.65;;;1.50;;
21233;SDS011;10774;42.178;26.578;2023-05-10T11:20:07;9.32;;;2.22;;
21233;SDS011;10774;42.178;26.578;2023-05-10T11:22:50;4.97;;;1.85;;
21233;SDS011;10774;42.178;26.578;2023-05-10T11:25:16;7.65;;;2.33;;
21233;SDS011;10774;42.178;26.578;2023-05-10T11:27:42;11.52;;;2.25;;
21233;SDS011;10774;42.178;26.578;2023-05-10T11:30:09;6.88;;;2.67;;
21233;SDS011;10774;42.178;26.578;2023-05-10T11:32:39;6.65;;;2.90;;
21233;SDS011;10774;42.178;26.578;2023-05-10T11:35:09;7.28;;;2.10;;
21233;SDS011;10774;42.178;26.578;2023-05-10T11:37:35;3.63;;;1.65;;
21233;SDS011;10774;42.178;26.578;2023-05-10T11:40:00;5.22;;;1.98;;
21233;SDS011;10774;42.178;26.578;2023-05-10T11:42:27;9.07;;;2.30;;
21233;SDS011;10774;42.178;26.578;2023-05-10T11:44:53;4.85;;;1.80;;
21233;SDS011;10774;42.178;26.578;2023-05-10T11:47:18;5.15;;;1.85;;
21233;SDS011;10774;42.178;26.578;2023-05-10T11:49:45;2.65;;;1.80;;
21233;SDS011;10774;42.178;26.578;2023-05-10T11:52:11;5.68;;;2.38;;
21233;SDS011;10774;42.178;26.578;2023-05-10T11:54:37;6.13;;;3.38;;
21233;SDS011;10774;42.178;26.578;2023-05-10T11:57:02;3.92;;;2.80;;
21233;SDS011;10774;42.178;26.578;2023-05-10T11:59:28;5.05;;;2.67;;
21233;SDS011;10774;42.178;26.578;2023-05-10T12:01:53;3.22;;;1.88;;
21233;SDS011;10774;42.178;26.578;2023-05-10T12:04:19;6.38;;;3.10;;
21233;SDS011;10774;42.178;26.578;2023-05-10T12:06:45;6.32;;;2.95;;
21233;SDS011;10774;42.178;26.578;2023-05-10T12:09:11;4.88;;;2.45;;
21233;SDS011;10774;42.178;26.578;2023-05-10T12:11:37;4.35;;;2.50;;
21233;SDS011;10774;42.178;26.578;2023-05-10T12:14:08;5.38;;;2.60;;
21233;SDS011;10774;42.178;26.578;2023-05-10T12:16:33;4.80;;;2.38;;
21233;SDS011;10774;42.178;26.578;2023-05-10T12:18:59;4.20;;;2.58;;
21233;SDS011;10774;42.178;26.578;2023-05-10T12:21:26;6.22;;;2.33;;
21233;SDS011;10774;42.178;26.578;2023-05-10T12:23:54;3.78;;;1.70;;
21233;SDS011;10774;42.178;26.578;2023-05-10T12:26:24;5.45;;;2.50;;
21233;SDS011;10774;42.178;26.578;2023-05-10T12:28:51;7.88;;;2.60;;
21233;SDS011;10774;42.178;26.578;2023-05-10T12:31:18;12.05;;;3.60;;
21233;SDS011;10774;42.178;26.578;2023-05-10T12:33:44;7.65;;;3.10;;
21233;SDS011;10774;42.178;26.578;2023-05-10T12:36:12;7.03;;;3.58;;
21233;SDS011;10774;42.178;26.578;2023-05-10T12:38:39;4.65;;;2.00;;
21233;SDS011;10774;42.178;26.578;2023-05-10T12:41:13;5.28;;;1.85;;
21233;SDS011;10774;42.178;26.578;2023-05-10T12:43:39;4.25;;;2.70;;
21233;SDS011;10774;42.178;26.578;2023-05-10T12:46:06;7.45;;;2.55;;
21233;SDS011;10774;42.178;26.578;2023-05-10T12:48:36;4.95;;;1.90;;
21233;SDS011;10774;42.178;26.578;2023-05-10T12:51:03;6.22;;;2.63;;
21233;SDS011;10774;42.178;26.578;2023-05-10T12:53:29;6.32;;;2.95;;
21233;SDS011;10774;42.178;26.578;2023-05-10T12:55:55;8.25;;;2.58;;
21233;SDS011;10774;42.178;26.578;2023-05-10T12:58:21;8.07;;;3.22;;
21233;SDS011;10774;42.178;26.578;2023-05-10T13:00:46;7.55;;;3.08;;
21233;SDS011;10774;42.178;26.578;2023-05-10T13:03:12;10.20;;;2.35;;
21233;SDS011;10774;42.178;26.578;2023-05-10T13:05:37;3.53;;;1.80;;
21233;SDS011;10774;42.178;26.578;2023-05-10T13:08:03;5.85;;;1.70;;
21233;SDS011;10774;42.178;26.578;2023-05-10T13:10:31;5.65;;;2.50;;
21233;SDS011;10774;42.178;26.578;2023-05-10T13:13:00;5.82;;;2.28;;
21233;SDS011;10774;42.178;26.578;2023-05-10T13:15:26;5.47;;;3.17;;
21233;SDS011;10774;42.178;26.578;2023-05-10T13:17:51;9.25;;;5.25;;
21233;SDS011;10774;42.178;26.578;2023-05-10T13:20:19;6.55;;;4.35;;
21233;SDS011;10774;42.178;26.578;2023-05-10T13:22:45;6.18;;;3.05;;
21233;SDS011;10774;42.178;26.578;2023-05-10T13:25:11;7.53;;;3.80;;
21233;SDS011;10774;42.178;26.578;2023-05-10T13:27:39;6.47;;;3.55;;
21233;SDS011;10774;42.178;26.578;2023-05-10T13:30:06;7.47;;;3.22;;
21233;SDS011;10774;42.178;26.578;2023-05-10T13:32:32;8.98;;;4.30;;
21233;SDS011;10774;42.178;26.578;2023-05-10T13:34:58;4.38;;;2.85;;
21233;SDS011;10774;42.178;26.578;2023-05-10T13:37:23;4.28;;;2.92;;
21233;SDS011;10774;42.178;26.578;2023-05-10T13:39:49;4.63;;;2.65;;
21233;SDS011;10774;42.178;26.578;2023-05-10T13:42:14;5.05;;;2.85;;
21233;SDS011;10774;42.178;26.578;2023-05-10T13:44:40;3.28;;;1.42;;
21233;SDS011;10774;42.178;26.578;2023-05-10T13:47:06;3.83;;;2.20;;
21233;SDS011;10774;42.178;26.578;2023-05-10T13:49:31;4.18;;;2.80;;
21233;SDS011;10774;42.178;26.578;2023-05-10T13:51:57;3.25;;;1.90;;
21233;SDS011;10774;42.178;26.578;2023-05-10T13:54:23;2.67;;;1.23;;
21233;SDS011;10774;42.178;26.578;2023-05-10T13:56:49;5.80;;;1.65;;
21233;SDS011;10774;42.178;26.578;2023-05-10T13:59:14;3.35;;;1.75;;
21233;SDS011;10774;42.178;26.578;2023-05-10T14:01:40;7.45;;;2.72;;
21233;SDS011;10774;42.178;26.578;2023-05-10T14:04:06;6.72;;;4.55;;
21233;SDS011;10774;42.178;26.578;2023-05-10T14:06:35;5.97;;;2.88;;
21233;SDS011;10774;42.178;26.578;2023-05-10T14:09:01;3.70;;;2.42;;
21233;SDS011;10774;42.178;26.578;2023-05-10T14:11:27;3.95;;;2.10;;
21233;SDS011;10774;42.178;26.578;2023-05-10T14:13:52;7.53;;;2.85;;
21233;SDS011;10774;42.178;26.578;2023-05-10T14:16:18;5.70;;;3.55;;
21233;SDS011;10774;42.178;26.578;2023-05-10T14:18:45;6.82;;;3.28;;
21233;SDS011;10774;42.178;26.578;2023-05-10T14:21:11;3.80;;;2.50;;
21233;SDS011;10774;42.178;26.578;2023-05-10T14:23:36;7.15;;;2.20;;
21233;SDS011;10774;42.178;26.578;2023-05-10T14:26:02;3.38;;;2.10;;
21233;SDS011;10774;42.178;26.578;2023-05-10T14:28:28;4.97;;;1.58;;
21233;SDS011;10774;42.178;26.578;2023-05-10T14:30:53;5.47;;;1.90;;
21233;SDS011;10774;42.178;26.578;2023-05-10T14:33:18;3.40;;;1.98;;
21233;SDS011;10774;42.178;26.578;2023-05-10T14:35:44;3.08;;;1.80;;
21233;SDS011;10774;42.178;26.578;2023-05-10T14:38:10;4.38;;;1.90;;
21233;SDS011;10774;42.178;26.578;2023-05-10T14:40:36;3.30;;;1.50;;
21233;SDS011;10774;42.178;26.578;2023-05-10T14:43:01;4.35;;;1.48;;
21233;SDS011;10774;42.178;26.578;2023-05-10T14:45:27;2.83;;;1.80;;
21233;SDS011;10774;42.178;26.578;2023-05-10T14:47:52;2.05;;;1.27;;
21233;SDS011;10774;42.178;26.578;2023-05-10T14:50:18;3.53;;;1.23;;
21233;SDS011;10774;42.178;26.578;2023-05-10T14:55:59;2.40;;;1.50;;
21233;SDS011;10774;42.178;26.578;2023-05-10T14:58:26;6.32;;;2.30;;
21233;SDS011;10774;42.178;26.578;2023-05-10T15:00:52;3.92;;;1.92;;
21233;SDS011;10774;42.178;26.578;2023-05-10T15:03:17;4.20;;;2.20;;